Hovedside
METAR-TAF:

METAR-TAF

Lufthavner :

Honiara internasjonale lufthavn

Honiara, Guadalcanal, Salomonøyene

breddegrad: 09-25S, lengdegrad: 160-03E, høyde over havet: 8 m

Gjeldene værobservasjon

Denne rapporten ble laget for 35 minutter siden, klokken 17:00 UTC
Vind 2 kt fra Sør-sørøst
Temperatur 23°C
Luftfuktighet 100%
Trykk 1010 hPa
Sikt 10 km eller mer
Få skyer i en høyde av 1500 ft
Spredte skyer i en høyde av 30000 ft

METAR: AGGH 181700Z 16002KT 9999 FEW015 SCT300 23/23 Q1010

Tid: 04:35 (17:35 UTC)

Varsel

Denne rapporten ble laget for 6 timer og 23 minutter siden, klokken 11:12 UTC
Varsel gyldig fra 18. klokken 12 UTC til 19. klokken 12 UTC
Vind 3 kt fra skiftende retning
Sikt: 1012 m
Få skyer i en høyde av 1500 ft

TAF: AGGH 181112Z 1812/1912 VRB03KT 9999 FEW015 T 25 24 23 27 Q 1012 1010 1009 1012

Værobservasjoner og værvarsel for over 4000 flyplasser (METAR- og TAF-rapporter).

Tilgjengelige stasjoner er representert av de røde og gule prikkene på kartet.

Hold musepekeren over prikken for å se navnet på stasjonen.

Klikk så for å se værobservasjoner og -varsler.

For å forandre kartet kan du klikke på den grønne knappen med svart kryss for å zoome inn, på den grønne knappen med strek for å zoome ut, eller på de grønne pilene for å se tilstøtende kart.


METAR-TAF: